Time;durP1;ratioP1;P1;durP2;ratioP2;P2;SDS_P1;SDS_P2;PMS_P1;PMS_P2;Temp;Humidity;BMP_temperature;BMP_pressure;BME280_temperature;BME280_humidity;BME280_pressure;Samples;Min_cycle;Max_cycle;Signal;HPM_P1;HPM_P2
2022/07/26 00:01:51;;;;;;;10.23;3.63;;;;;;;22.12;48.88;98446.66;8467005;27;20040;-81
2022/07/26 00:05:55;;;;;;;8.48;3.78;;;;;;;22.11;48.90;98445.09;8467093;28;20055;-80
2022/07/26 00:09:56;;;;;;;10.77;3.72;;;;;;;22.06;49.07;98430.97;8466698;27;20044;-80
2022/07/26 00:13:57;;;;;;;9.35;3.70;;;;;;;22.06;49.34;98426.25;8454026;28;20061;-80
2022/07/26 00:17:58;;;;;;;11.77;3.80;;;;;;;22.06;49.58;98437.25;8422550;27;20495;-81
2022/07/26 00:26:21;;;;;;;15.00;3.83;;;;;;;22.08;49.49;98429.41;8396827;28;20036;-80
2022/07/26 00:30:22;;;;;;;14.00;4.20;;;;;;;22.03;50.08;98416.06;8454952;27;20062;-80
2022/07/26 00:34:24;;;;;;;7.07;3.75;;;;;;;21.98;50.10;98413.75;8463743;27;20043;-80
2022/07/26 00:38:25;;;;;;;17.73;4.10;;;;;;;21.94;50.46;98407.50;8448585;27;20491;-81
2022/07/26 00:42:26;;;;;;;10.70;3.85;;;;;;;21.95;50.70;98409.03;8397003;27;20126;-80
2022/07/26 00:46:27;;;;;;;7.78;3.92;;;;;;;21.90;50.93;98401.19;8398981;28;20450;-81
2022/07/26 00:50:28;;;;;;;11.05;3.80;;;;;;;21.85;51.08;98399.63;8449595;27;20043;-81
2022/07/26 00:54:29;;;;;;;7.35;3.90;;;;;;;21.82;51.10;98394.16;8459215;27;20039;-80
2022/07/26 00:58:30;;;;;;;8.65;3.83;;;;;;;21.77;51.44;98391.84;8448750;27;20082;-81
2022/07/26 01:02:31;;;;;;;6.38;3.53;;;;;;;21.69;51.86;98391.06;8424295;27;20067;-81
2022/07/26 01:06:32;;;;;;;11.15;3.85;;;;;;;21.67;52.09;98392.66;8438066;27;20078;-79
2022/07/26 01:10:33;;;;;;;12.00;3.97;;;;;;;21.64;52.11;98385.22;8466523;27;20058;-80
2022/07/26 01:14:34;;;;;;;12.55;3.85;;;;;;;21.64;52.05;98393.44;8462412;27;20075;-81
2022/07/26 01:18:35;;;;;;;10.52;3.72;;;;;;;21.68;52.34;98394.25;8466909;27;20526;-80
2022/07/26 01:22:36;;;;;;;10.25;4.00;;;;;;;21.71;52.40;98393.44;8466013;27;20086;-80
2022/07/26 01:26:37;;;;;;;7.22;4.00;;;;;;;21.69;52.46;98390.28;8466613;27;20051;-80
2022/07/26 01:30:38;;;;;;;7.10;3.80;;;;;;;21.72;52.51;98384.00;8364226;28;20663;-80
2022/07/26 01:34:39;;;;;;;15.70;4.57;;;;;;;21.71;52.58;98382.44;8329280;28;20045;-80
2022/07/26 01:38:41;;;;;;;20.50;4.30;;;;;;;21.70;52.63;98391.84;8368297;28;20052;-80
2022/07/26 01:42:42;;;;;;;10.48;3.65;;;;;;;21.69;52.55;98387.53;8337951;28;20075;-80
2022/07/26 01:46:43;;;;;;;6.72;3.95;;;;;;;21.64;53.06;98405.22;8364793;28;20148;-80
2022/07/26 01:50:44;;;;;;;7.85;4.20;;;;;;;21.64;53.01;98409.94;8359441;28;20048;-80
2022/07/26 01:54:45;;;;;;;10.35;4.28;;;;;;;21.62;53.10;98406.81;8351803;28;20084;-80
2022/07/26 01:58:46;;;;;;;10.50;4.28;;;;;;;21.55;53.18;98406.84;8329371;28;20045;-80
2022/07/26 02:02:47;;;;;;;9.85;4.13;;;;;;;21.54;53.73;98408.03;8462422;27;20046;-80
2022/07/26 02:06:47;;;;;;;14.60;3.72;;;;;;;21.53;53.97;98409.19;8454666;27;20036;-81
2022/07/26 02:11:00;;;;;;;7.32;3.63;;;;;;;21.51;54.20;98420.59;8465260;27;20055;-80
2022/07/26 02:15:03;;;;;;;8.88;3.75;;;;;;;21.58;53.74;98422.50;8462814;27;20514;-81
2022/07/26 02:19:04;;;;;;;11.65;3.80;;;;;;;21.62;53.98;98434.31;8458525;27;20032;-80
2022/07/26 02:23:05;;;;;;;7.65;3.70;;;;;;;21.58;54.57;98428.78;8439680;27;20550;-80
2022/07/26 02:27:06;;;;;;;10.30;4.07;;;;;;;21.59;54.39;98424.09;8438983;27;20058;-80
2022/07/26 02:31:07;;;;;;;10.90;4.85;;;;;;;21.59;54.86;98424.09;8432655;27;20044;-80
2022/07/26 02:35:09;;;;;;;7.90;4.07;;;;;;;21.56;55.28;98431.19;8395943;27;20054;-80
2022/07/26 02:39:11;;;;;;;12.05;4.25;;;;;;;21.43;56.61;98472.00;8441953;27;20036;-80
2022/07/26 02:43:11;;;;;;;8.25;3.70;;;;;;;21.18;57.47;98470.50;8429378;28;20028;-80
2022/07/26 02:47:13;;;;;;;7.60;4.25;;;;;;;21.20;57.36;98481.88;8432387;27;20051;-80
2022/07/26 02:51:13;;;;;;;6.82;3.65;;;;;;;21.15;57.93;98488.53;8384561;28;20052;-80
2022/07/26 02:55:16;;;;;;;6.18;3.78;;;;;;;21.08;58.79;98472.03;8435307;27;20142;-80
2022/07/26 02:59:17;;;;;;;7.82;4.10;;;;;;;21.06;59.35;98479.88;8431317;27;20082;-80
2022/07/26 03:03:18;;;;;;;6.20;3.97;;;;;;;21.00;59.80;98482.22;8442218;27;20051;-79
2022/07/26 03:07:18;;;;;;;7.85;3.90;;;;;;;20.99;60.03;98496.38;8432504;28;20142;-80
2022/07/26 03:11:19;;;;;;;7.70;4.18;;;;;;;20.95;60.48;98504.59;8438428;28;20055;-80
2022/07/26 03:15:20;;;;;;;10.60;4.22;;;;;;;20.87;60.72;98515.97;8364553;28;20130;-80
2022/07/26 03:19:21;;;;;;;13.18;5.22;;;;;;;20.83;61.15;98543.38;8426794;28;20052;-79
2022/07/26 03:23:22;;;;;;;12.43;5.68;;;;;;;20.87;61.03;98554.38;8431663;28;20052;-79
2022/07/26 03:27:23;;;;;;;14.18;6.10;;;;;;;20.89;61.53;98550.06;8439659;28;20060;-79
2022/07/26 03:31:25;;;;;;;11.68;6.03;;;;;;;20.87;62.27;98570.84;8457246;28;20102;-82
2022/07/26 03:35:26;;;;;;;16.65;7.03;;;;;;;20.82;62.90;98579.47;8410296;28;20135;-80
2022/07/26 03:39:27;;;;;;;12.80;6.18;;;;;;;20.81;62.97;98566.91;8456373;28;20040;-81
2022/07/26 03:43:28;;;;;;;13.40;6.97;;;;;;;20.80;63.71;98576.31;8447492;28;20067;-82
2022/07/26 03:47:29;;;;;;;12.43;7.50;;;;;;;20.77;64.28;98571.63;8398348;28;20059;-82
2022/07/26 03:51:32;;;;;;;13.63;7.85;;;;;;;20.72;65.08;98569.25;8430903;28;20125;-81
2022/07/26 03:59:53;;;;;;;20.08;8.98;;;;;;;20.63;66.97;98592.34;8425844;28;20051;-81
2022/07/26 04:03:54;;;;;;;17.05;9.55;;;;;;;20.59;68.10;98591.56;8434517;28;20116;-82
2022/07/26 04:07:55;;;;;;;14.02;9.02;;;;;;;20.53;69.08;98601.34;8437166;28;20142;-82
2022/07/26 04:11:56;;;;;;;19.63;9.98;;;;;;;20.52;70.09;98618.97;8452134;28;20109;-81
2022/07/26 04:15:57;;;;;;;20.88;10.70;;;;;;;20.53;71.88;98628.75;8430147;28;20063;-82
2022/07/26 04:19:58;;;;;;;17.92;11.05;;;;;;;20.53;73.06;98628.75;8429965;28;20054;-81
2022/07/26 04:23:59;;;;;;;19.50;11.68;;;;;;;20.64;74.22;98629.59;8410498;28;20494;-82
2022/07/26 04:28:01;;;;;;;17.83;12.27;;;;;;;20.69;75.58;98641.34;8450395;28;20052;-81
2022/07/26 04:32:02;;;;;;;17.85;13.40;;;;;;;20.64;77.48;98646.06;8433305;28;20054;-82
2022/07/26 04:36:04;;;;;;;22.15;13.68;;;;;;;20.65;78.10;98644.88;8436871;28;20040;-82
2022/07/26 04:40:06;;;;;;;20.00;14.32;;;;;;;20.65;78.29;98650.38;8443225;28;20131;-83
2022/07/26 04:44:07;;;;;;;47.60;14.55;;;;;;;20.69;78.89;98657.81;8445155;28;20101;-82
2022/07/26 04:48:08;;;;;;;21.10;14.98;;;;;;;20.64;80.99;98662.50;8433285;28;20044;-82
2022/07/26 04:52:08;;;;;;;22.85;15.77;;;;;;;20.55;81.80;98664.84;8423524;28;20055;-82
2022/07/26 04:56:09;;;;;;;25.65;16.40;;;;;;;20.51;82.56;98668.75;8450603;28;20115;-82
2022/07/26 05:00:12;;;;;;;21.65;15.73;;;;;;;20.51;82.70;98666.78;8437459;28;20060;-83
2022/07/26 05:04:13;;;;;;;24.08;15.15;;;;;;;20.52;82.99;98693.03;8451244;28;20402;-81
2022/07/26 05:08:15;;;;;;;28.95;16.90;;;;;;;20.48;83.32;98697.72;8466051;28;20059;-81
2022/07/26 05:12:16;;;;;;;19.92;15.57;;;;;;;20.50;82.76;98700.88;8445448;28;20066;-82
2022/07/26 05:16:17;;;;;;;21.30;15.95;;;;;;;20.52;83.92;98698.50;8454314;28;20134;-82
2022/07/26 05:20:18;;;;;;;22.58;15.10;;;;;;;20.57;84.55;98700.88;8427034;28;20439;-82
2022/07/26 05:24:19;;;;;;;24.08;15.55;;;;;;;20.61;84.03;98712.69;8428993;28;20036;-82
2022/07/26 05:28:20;;;;;;;24.42;15.27;;;;;;;20.64;83.66;98717.38;8451094;28;20035;-82
2022/07/26 05:32:22;;;;;;;18.98;14.13;;;;;;;20.70;83.67;98714.28;8440814;28;20130;-82
2022/07/26 05:36:23;;;;;;;20.08;13.43;;;;;;;20.75;83.80;98719.38;8379032;28;20039;-82
2022/07/26 05:40:24;;;;;;;17.33;12.60;;;;;;;20.75;83.55;98733.09;8401875;28;20422;-83
2022/07/26 05:44:25;;;;;;;18.60;12.10;;;;;;;20.83;81.23;98734.72;8450062;28;20063;-82
2022/07/26 05:48:26;;;;;;;14.75;10.70;;;;;;;20.83;81.76;98719.03;8458222;28;20051;-81
2022/07/26 05:52:27;;;;;;;13.93;9.75;;;;;;;20.82;81.44;98730.41;8447827;28;20048;-83
2022/07/26 05:56:27;;;;;;;14.45;9.63;;;;;;;20.86;80.89;98744.94;8416978;28;20100;-83
2022/07/26 06:00:28;;;;;;;20.45;10.18;;;;;;;20.86;81.29;98751.19;8449822;28;20044;-82
2022/07/26 06:04:29;;;;;;;11.95;9.35;;;;;;;20.91;81.33;98745.34;8455136;28;20119;-82
2022/07/26 06:08:31;;;;;;;11.75;9.00;;;;;;;21.00;80.42;98750.47;8443854;28;20048;-82
2022/07/26 06:12:31;;;;;;;15.60;9.27;;;;;;;21.04;80.61;98767.75;8454331;28;20067;-81
2022/07/26 06:16:32;;;;;;;11.95;8.27;;;;;;;21.06;79.99;98770.88;8438617;28;20037;-83
2022/07/26 06:20:35;;;;;;;10.35;6.63;;;;;;;21.09;79.61;98770.13;8452702;28;20071;-82
2022/07/26 06:24:36;;;;;;;8.93;6.60;;;;;;;21.02;78.18;98775.59;8448744;28;20051;-82
2022/07/26 06:28:38;;;;;;;12.20;6.90;;;;;;;21.02;77.89;98797.53;8411450;28;20046;-84
2022/07/26 06:32:43;;;;;;;8.98;6.05;;;;;;;21.00;77.64;98810.84;8454868;28;20043;-84
2022/07/26 06:36:44;;;;;;;8.93;5.30;;;;;;;20.87;77.00;98795.91;8450605;28;20047;-84
2022/07/26 06:40:45;;;;;;;6.28;4.78;;;;;;;20.81;76.06;98802.94;8432478;28;20495;-83
2022/07/26 06:44:45;;;;;;;9.35;4.63;;;;;;;20.73;75.49;98807.56;8406674;28;20058;-82
2022/07/26 06:48:48;;;;;;;6.53;4.40;;;;;;;20.72;75.32;98810.72;8444670;28;20086;-83
2022/07/26 06:52:49;;;;;;;9.80;4.50;;;;;;;20.65;74.76;98817.75;8446096;28;20279;-80
2022/07/26 06:56:50;;;;;;;9.80;4.00;;;;;;;20.58;74.81;98828.66;8455986;28;20132;-82
2022/07/26 07:00:51;;;;;;;9.60;4.10;;;;;;;20.54;75.03;98822.38;8455751;28;20044;-83
2022/07/26 07:04:52;;;;;;;8.75;3.97;;;;;;;20.54;74.46;98833.34;8396926;28;20100;-83
2022/07/26 07:08:53;;;;;;;5.57;3.72;;;;;;;20.59;73.81;98838.47;8447417;28;20445;-83
2022/07/26 07:12:54;;;;;;;7.93;4.15;;;;;;;20.89;72.39;98837.47;8425467;28;20047;-78
2022/07/26 07:16:55;;;;;;;8.55;3.95;;;;;;;20.85;72.83;98858.63;8412308;28;20043;-78
2022/07/26 07:20:56;;;;;;;8.88;4.07;;;;;;;20.83;72.45;98855.50;8460923;28;20040;-80
2022/07/26 07:24:57;;;;;;;5.65;3.95;;;;;;;20.82;72.43;98853.91;8442715;28;20044;-78
2022/07/26 07:28:58;;;;;;;5.68;3.50;;;;;;;20.82;72.67;98859.41;8428678;28;20036;-80
2022/07/26 07:32:59;;;;;;;5.38;3.75;;;;;;;20.87;71.76;98870.00;8428474;28;20123;-79
2022/07/26 07:37:00;;;;;;;10.05;3.90;;;;;;;20.99;71.38;98880.69;8447575;28;20549;-80
2022/07/26 07:41:01;;;;;;;7.35;3.65;;;;;;;21.07;71.14;98882.28;8440954;28;20054;-79
2022/07/26 07:45:03;;;;;;;7.05;3.97;;;;;;;21.09;70.74;98885.44;8441136;28;20501;-80
2022/07/26 07:49:05;;;;;;;8.50;3.47;;;;;;;21.23;70.41;98896.53;8430343;28;20056;-78
2022/07/26 07:53:06;;;;;;;11.98;3.65;;;;;;;21.35;69.64;98887.97;8431519;28;20047;-79
2022/07/26 07:57:09;;;;;;;6.80;3.28;;;;;;;21.53;69.90;98898.22;8444839;28;20431;-79
2022/07/26 08:01:10;;;;;;;9.25;4.07;;;;;;;21.66;68.12;98914.00;8444139;28;20044;-79
2022/07/26 08:05:12;;;;;;;8.52;3.65;;;;;;;21.67;67.89;98917.53;8441326;28;20048;-78
2022/07/26 08:09:13;;;;;;;5.88;2.95;;;;;;;21.69;67.48;98906.94;8436387;28;20047;-79
2022/07/26 08:13:14;;;;;;;4.90;2.85;;;;;;;21.69;66.50;98909.69;8446925;28;20045;-79
2022/07/26 08:17:19;;;;;;;10.77;3.28;;;;;;;21.91;66.27;98922.31;8385012;28;20048;-79
2022/07/26 08:21:20;;;;;;;6.45;3.20;;;;;;;22.05;65.59;98922.38;8407441;28;20044;-79
2022/07/26 08:25:21;;;;;;;6.57;2.95;;;;;;;22.17;64.78;98922.03;8414716;28;20055;-79
2022/07/26 08:29:21;;;;;;;8.48;3.00;;;;;;;22.28;64.37;98917.34;8432544;28;20044;-78
2022/07/26 08:33:23;;;;;;;8.35;3.40;;;;;;;22.28;64.12;98917.34;8448838;28;20058;-78
2022/07/26 08:37:23;;;;;;;11.60;3.03;;;;;;;22.39;64.21;98927.56;8455388;27;20408;-79
2022/07/26 08:41:25;;;;;;;6.32;3.05;;;;;;;22.57;63.59;98939.38;8460331;28;20040;-80
2022/07/26 08:45:27;;;;;;;8.13;3.08;;;;;;;22.53;63.40;98938.56;8423340;28;20044;-79
2022/07/26 08:49:31;;;;;;;13.07;3.72;;;;;;;22.44;63.53;98941.72;8435748;27;20415;-80
2022/07/26 08:53:33;;;;;;;7.63;3.25;;;;;;;22.45;63.49;98939.75;8431821;28;20099;-79
2022/07/26 08:57:34;;;;;;;6.95;3.10;;;;;;;22.39;63.01;98949.56;8443488;28;20076;-78
2022/07/26 09:01:57;;;;;;;9.93;3.08;;;;;;;22.40;63.71;98945.66;8458413;28;20047;-78
2022/07/26 09:06:14;;;;;;;9.50;3.40;;;;;;;22.36;63.70;98955.88;8458029;28;20122;-78
2022/07/26 09:10:15;;;;;;;11.25;3.50;;;;;;;22.37;63.30;98957.41;8464630;28;20036;-78
2022/07/26 09:14:16;;;;;;;7.90;3.13;;;;;;;22.23;63.33;98953.47;8389542;28;20051;-79
2022/07/26 09:18:29;;;;;;;8.43;2.92;;;;;;;22.31;63.55;98966.06;8388309;28;20491;-79
2022/07/26 09:22:30;;;;;;;6.38;2.90;;;;;;;22.41;62.38;98972.00;8386434;28;20045;-79
2022/07/26 09:26:31;;;;;;;6.88;2.72;;;;;;;22.40;62.76;98967.66;8324465;28;20124;-79
2022/07/26 09:30:35;;;;;;;12.90;3.75;;;;;;;22.60;62.45;98966.09;8375227;28;20053;-79
2022/07/26 09:34:36;;;;;;;6.53;2.78;;;;;;;22.67;62.16;98971.63;8384250;28;20052;-79
2022/07/26 09:38:40;;;;;;;9.00;3.65;;;;;;;22.88;62.21;98966.16;8385327;28;20052;-79
2022/07/26 09:42:56;;;;;;;11.43;3.00;;;;;;;22.86;61.38;98968.50;8372663;28;20416;-79
2022/07/26 09:47:00;;;;;;;8.07;2.88;;;;;;;22.86;61.82;98967.72;8436088;28;20074;-78
2022/07/26 09:51:01;;;;;;;6.05;2.83;;;;;;;22.87;60.87;98985.81;8445362;28;20542;-78
2022/07/26 09:55:07;;;;;;;9.13;2.80;;;;;;;22.86;61.44;98985.03;8424568;28;20047;-79
2022/07/26 09:59:08;;;;;;;10.35;3.10;;;;;;;22.84;60.53;98987.38;8462886;28;20499;-78
2022/07/26 10:03:09;;;;;;;9.10;2.45;;;;;;;22.82;60.50;98989.75;8463977;28;20051;-78
2022/07/26 10:07:10;;;;;;;8.13;3.10;;;;;;;22.93;60.39;98984.25;8445795;28;20047;-78
2022/07/26 10:11:13;;;;;;;7.85;2.97;;;;;;;22.92;60.33;98994.47;8451504;28;20078;-78
2022/07/26 10:15:43;;;;;;;7.13;2.80;;;;;;;22.86;59.89;98987.00;8443095;27;20048;-78
2022/07/26 10:19:47;;;;;;;7.13;3.25;;;;;;;22.80;60.03;98997.59;8444350;28;20501;-77
2022/07/26 10:23:55;;;;;;;7.10;2.75;;;;;;;22.82;59.41;98995.25;8446681;28;20459;-78
2022/07/26 10:27:57;;;;;;;6.63;2.60;;;;;;;22.87;59.64;98986.59;8453692;28;20047;-78
2022/07/26 10:32:07;;;;;;;7.60;2.40;;;;;;;22.95;58.75;99004.69;8434261;28;20048;-78
2022/07/26 10:36:29;;;;;;;8.85;2.58;;;;;;;23.15;59.00;98992.09;8446768;28;20085;-78
2022/07/26 10:40:31;;;;;;;8.10;2.70;;;;;;;23.32;58.37;98989.72;8454910;28;20044;-78
2022/07/26 10:44:34;;;;;;;8.18;2.58;;;;;;;23.34;56.24;98981.84;8453512;28;20047;-78
2022/07/26 10:48:53;;;;;;;7.45;2.63;;;;;;;23.54;56.46;98983.00;8407954;28;20131;-79
2022/07/26 10:52:58;;;;;;;6.20;2.40;;;;;;;23.53;56.36;98984.16;8431040;28;20407;-78
2022/07/26 10:56:59;;;;;;;5.90;2.55;;;;;;;23.52;54.59;98990.91;8446424;28;20521;-78
2022/07/26 11:01:02;;;;;;;7.13;2.30;;;;;;;23.50;55.60;98990.50;8455042;28;20043;-78
2022/07/26 11:05:11;;;;;;;6.53;2.15;;;;;;;23.55;56.38;98992.84;8440368;28;20709;-76
2022/07/26 11:09:13;;;;;;;7.82;2.63;;;;;;;23.60;55.59;98999.91;8433250;28;20043;-77
2022/07/26 11:13:17;;;;;;;3.97;1.63;;;;;;;23.68;54.72;99002.28;8437121;28;20058;-78
2022/07/26 11:17:24;;;;;;;7.72;1.80;;;;;;;23.60;52.75;99000.69;8435433;28;20047;-76
2022/07/26 11:21:26;;;;;;;3.65;1.80;;;;;;;23.51;52.68;99008.59;8455299;28;20075;-77
2022/07/26 11:25:27;;;;;;;4.03;1.73;;;;;;;23.54;52.44;99007.81;8448979;28;20117;-77
2022/07/26 11:29:49;;;;;;;5.28;1.92;;;;;;;23.70;52.37;99005.41;8390635;28;20461;-78
2022/07/26 11:33:50;;;;;;;7.13;1.95;;;;;;;23.69;52.21;98998.31;8364692;28;20056;-79
2022/07/26 11:37:53;;;;;;;7.10;2.00;;;;;;;23.77;52.34;98997.13;8381063;28;20483;-78
2022/07/26 11:41:58;;;;;;;6.18;1.83;;;;;;;23.86;52.23;98997.47;8374615;28;20049;-79
2022/07/26 11:45:59;;;;;;;5.57;1.88;;;;;;;23.85;51.20;98995.88;8339147;28;20048;-80
2022/07/26 11:50:06;;;;;;;3.97;1.90;;;;;;;23.82;51.72;98996.69;8310213;28;20041;-79
2022/07/26 11:54:07;;;;;;;6.95;2.67;;;;;;;23.75;52.39;98995.94;8306358;28;20501;-81
2022/07/26 11:58:08;;;;;;;4.35;2.13;;;;;;;23.65;52.87;98992.03;8314574;28;20048;-80
2022/07/26 12:02:09;;;;;;;8.73;2.42;;;;;;;23.53;53.16;98984.16;8306873;28;20492;-78
2022/07/26 12:06:13;;;;;;;5.32;2.72;;;;;;;23.37;53.62;98992.09;8299077;28;20042;-83
2022/07/26 12:10:15;;;;;;;7.72;2.53;;;;;;;23.19;55.33;99005.09;8358579;28;20094;-79
2022/07/26 12:14:27;;;;;;;5.82;2.50;;;;;;;23.08;55.47;98997.63;8411004;28;20048;-77
2022/07/26 12:18:29;;;;;;;8.25;2.75;;;;;;;23.05;54.97;98992.88;8404019;28;20411;-78
2022/07/26 12:22:30;;;;;;;5.50;2.58;;;;;;;23.08;55.65;98992.09;8408936;28;20049;-77
2022/07/26 12:26:32;;;;;;;8.75;2.78;;;;;;;22.98;55.71;98992.91;8367104;28;20189;-77
2022/07/26 12:30:34;;;;;;;7.53;2.72;;;;;;;22.83;55.76;98991.34;8411020;28;20530;-78
2022/07/26 12:34:36;;;;;;;9.45;2.72;;;;;;;22.66;56.38;98986.56;8417309;28;20436;-77
2022/07/26 12:38:39;;;;;;;29.05;4.15;;;;;;;22.63;56.52;98992.88;8410803;28;20044;-78
2022/07/26 12:42:50;;;;;;;8.40;3.17;;;;;;;22.54;56.43;98989.69;8409350;28;20033;-79
2022/07/26 12:46:51;;;;;;;7.63;2.85;;;;;;;22.51;56.52;98990.47;8394668;28;20484;-77
2022/07/26 12:50:52;;;;;;;6.68;3.05;;;;;;;22.53;57.32;98999.13;8397068;28;20043;-79
2022/07/26 12:54:53;;;;;;;8.43;2.72;;;;;;;22.52;56.92;98997.56;8393424;28;20213;-77
2022/07/26 12:58:59;;;;;;;7.22;3.03;;;;;;;22.73;56.79;98986.59;8446306;27;20036;-78
2022/07/26 13:03:01;;;;;;;6.35;2.90;;;;;;;22.89;56.01;98987.00;8442572;28;20046;-77
2022/07/26 13:07:03;;;;;;;8.88;3.22;;;;;;;22.96;55.81;98984.22;8443289;28;20487;-78
2022/07/26 13:11:04;;;;;;;8.18;3.05;;;;;;;22.92;55.55;98971.66;8445872;28;20047;-77
2022/07/26 13:15:05;;;;;;;8.88;3.55;;;;;;;22.93;55.83;98985.03;8444621;28;20052;-78
2022/07/26 13:19:07;;;;;;;8.18;3.03;;;;;;;22.94;56.28;98975.59;8443602;28;20048;-78
2022/07/26 13:23:10;;;;;;;8.18;2.80;;;;;;;22.82;56.45;98983.47;8443762;28;20181;-77
2022/07/26 13:27:12;;;;;;;11.73;3.20;;;;;;;22.75;55.94;98987.00;8444237;28;20044;-79
2022/07/26 13:31:13;;;;;;;9.80;3.08;;;;;;;22.72;56.53;98985.81;8410867;28;20075;-78
2022/07/26 13:35:14;;;;;;;13.10;3.25;;;;;;;22.64;56.90;98989.69;8443042;28;20043;-77
2022/07/26 13:39:15;;;;;;;14.40;3.42;;;;;;;22.55;56.98;98996.78;8442490;28;20379;-78
2022/07/26 13:43:16;;;;;;;10.40;3.88;;;;;;;22.40;56.93;98995.97;8410827;28;20061;-78
2022/07/26 13:47:17;;;;;;;11.40;3.97;;;;;;;22.37;57.48;98995.94;8448947;28;20044;-78
2022/07/26 13:51:18;;;;;;;7.97;3.13;;;;;;;22.36;57.51;98999.88;8443562;28;20039;-78
2022/07/26 13:55:21;;;;;;;8.75;3.38;;;;;;;22.33;57.55;99002.22;8443221;28;20498;-78
2022/07/26 13:59:22;;;;;;;9.93;3.40;;;;;;;22.36;57.33;98999.88;8451648;27;20047;-78
2022/07/26 14:03:23;;;;;;;6.55;3.28;;;;;;;22.37;58.05;98998.69;8456360;27;20070;-78
2022/07/26 14:07:24;;;;;;;6.03;3.03;;;;;;;22.43;57.38;98994.38;8453965;28;20036;-78
2022/07/26 14:11:25;;;;;;;10.10;3.50;;;;;;;22.58;56.57;98995.97;8445076;28;20120;-77
2022/07/26 14:15:26;;;;;;;6.25;3.25;;;;;;;22.92;55.69;98986.22;8451018;28;20048;-77
2022/07/26 14:19:27;;;;;;;6.60;3.13;;;;;;;23.20;55.13;98977.16;8433027;28;20051;-77
2022/07/26 14:23:29;;;;;;;8.95;3.60;;;;;;;23.53;54.43;98984.16;8449766;28;20383;-77
2022/07/26 14:27:29;;;;;;;9.05;3.38;;;;;;;23.67;53.76;98984.16;8455981;28;20060;-78
2022/07/26 14:31:31;;;;;;;4.55;2.95;;;;;;;23.71;52.53;98979.41;8454766;27;20144;-77
2022/07/26 14:35:32;;;;;;;7.80;2.95;;;;;;;23.96;52.52;98980.09;8432353;28;20043;-78
2022/07/26 14:39:33;;;;;;;8.27;2.97;;;;;;;24.34;52.08;98977.56;8451572;28;20054;-78
2022/07/26 14:43:34;;;;;;;10.50;3.22;;;;;;;24.55;49.91;98977.41;8454356;28;20072;-78
2022/07/26 14:47:35;;;;;;;7.97;2.47;;;;;;;25.95;46.44;98972.97;8449590;28;20052;-79
2022/07/26 14:51:36;;;;;;;6.28;2.90;;;;;;;28.43;40.79;98969.44;8401682;28;20055;-78
2022/07/26 14:55:37;;;;;;;15.48;3.92;;;;;;;30.22;37.98;98961.56;8453226;28;20103;-78
2022/07/26 14:59:41;;;;;;;8.35;2.97;;;;;;;31.18;35.43;98976.00;8456590;27;20055;-79
2022/07/26 15:03:43;;;;;;;6.43;2.58;;;;;;;31.99;33.82;98966.72;8463622;27;20043;-81
2022/07/26 15:07:44;;;;;;;5.95;2.45;;;;;;;32.14;31.72;98956.63;8454491;28;20549;-80
2022/07/26 15:11:45;;;;;;;5.22;2.42;;;;;;;32.43;31.88;98961.84;8452520;27;20083;-80
2022/07/26 15:15:46;;;;;;;4.57;2.33;;;;;;;32.53;30.97;98955.06;8453231;28;20043;-78
2022/07/26 15:19:47;;;;;;;4.93;2.00;;;;;;;32.33;30.84;98951.09;8438012;28;20051;-80
2022/07/26 15:23:50;;;;;;;7.18;2.28;;;;;;;32.35;30.43;98960.59;8452517;28;20472;-76
2022/07/26 15:27:52;;;;;;;6.07;2.35;;;;;;;30.50;33.30;98966.28;8451752;28;20051;-78
2022/07/26 15:31:53;;;;;;;6.80;2.38;;;;;;;29.39;34.68;98955.97;8449348;28;20047;-77
2022/07/26 15:35:54;;;;;;;6.03;2.30;;;;;;;28.45;36.92;98949.53;8432283;28;20047;-76
2022/07/26 15:39:55;;;;;;;11.85;2.90;;;;;;;27.76;38.45;98953.44;8443946;28;20483;-78
2022/07/26 15:43:56;;;;;;;10.43;3.25;;;;;;;27.43;39.81;98946.91;8453996;28;20089;-78
2022/07/26 15:47:57;;;;;;;9.48;2.45;;;;;;;27.41;39.94;98949.31;8430626;28;20494;-78
2022/07/26 15:51:58;;;;;;;8.13;3.08;;;;;;;27.03;39.59;98955.16;8454493;28;20051;-78
2022/07/26 15:56:01;;;;;;;5.40;2.13;;;;;;;26.74;40.00;98962.34;8450720;28;20044;-79
2022/07/26 16:00:05;;;;;;;4.88;2.35;;;;;;;26.36;41.27;98959.78;8455359;28;20047;-78
2022/07/26 16:04:06;;;;;;;11.43;2.33;;;;;;;26.28;42.24;98958.28;8454772;28;20429;-77
2022/07/26 16:08:07;;;;;;;3.85;1.80;;;;;;;26.54;41.27;98953.19;8451935;28;20044;-79
2022/07/26 16:12:08;;;;;;;11.98;2.10;;;;;;;26.64;40.17;98957.78;8454702;28;20127;-77
2022/07/26 16:16:09;;;;;;;6.68;2.10;;;;;;;26.43;40.26;98951.38;8455671;28;20043;-78
2022/07/26 16:20:10;;;;;;;5.50;2.00;;;;;;;26.06;41.04;98945.94;8443117;28;20042;-78
2022/07/26 16:24:11;;;;;;;6.60;2.10;;;;;;;25.63;41.89;98952.00;8454211;28;20051;-80
2022/07/26 16:28:12;;;;;;;5.25;1.92;;;;;;;25.23;42.64;98955.56;8460870;27;20088;-80
2022/07/26 16:32:13;;;;;;;4.03;1.95;;;;;;;25.09;43.75;98944.66;8425358;28;20039;-79
2022/07/26 16:36:14;;;;;;;4.47;1.98;;;;;;;25.08;44.29;98959.66;8461978;28;20576;-80
2022/07/26 16:40:15;;;;;;;7.97;2.53;;;;;;;25.01;45.31;98954.22;8458696;28;20074;-80
2022/07/26 16:44:16;;;;;;;51.40;7.50;;;;;;;24.94;46.32;98959.78;8460126;28;20042;-80
2022/07/26 16:48:18;;;;;;;104.85;10.73;;;;;;;24.82;47.29;98959.06;8454532;27;20120;-81
2022/07/26 16:52:19;;;;;;;12.85;3.22;;;;;;;24.71;47.88;98963.88;8405140;28;20047;-81
2022/07/26 16:56:20;;;;;;;6.53;2.22;;;;;;;24.61;49.42;98953.72;8441511;28;20039;-82
2022/07/26 17:00:21;;;;;;;4.53;2.83;;;;;;;24.54;49.39;98959.28;8447228;28;20403;-82
2022/07/26 17:04:22;;;;;;;4.97;2.50;;;;;;;24.38;50.54;98961.75;8461768;27;20039;-80
2022/07/26 17:08:24;;;;;;;10.60;2.25;;;;;;;24.23;51.52;98961.06;8463306;28;20043;-80
2022/07/26 17:12:25;;;;;;;8.90;2.15;;;;;;;24.11;52.01;98955.22;8455890;28;20035;-80
2022/07/26 17:16:26;;;;;;;4.25;2.00;;;;;;;23.92;52.19;98957.25;8460544;27;20119;-80
2022/07/26 17:20:28;;;;;;;8.95;2.70;;;;;;;23.72;52.49;98958.94;8456054;27;20050;-80
2022/07/26 17:24:28;;;;;;;8.50;2.40;;;;;;;23.58;53.37;98961.75;8457669;28;20100;-80
2022/07/26 17:28:29;;;;;;;5.38;2.55;;;;;;;23.44;54.19;98964.50;8450690;28;20530;-79
2022/07/26 17:32:30;;;;;;;7.18;2.53;;;;;;;23.27;55.15;98970.81;8456563;28;20122;-79
2022/07/26 17:36:36;;;;;;;7.88;2.45;;;;;;;23.12;56.18;98976.34;8458802;27;20471;-79
2022/07/26 17:40:37;;;;;;;7.68;2.38;;;;;;;23.04;56.99;98980.31;8458506;27;20137;-78
2022/07/26 17:44:39;;;;;;;8.60;2.53;;;;;;;22.87;57.53;98980.31;8458260;28;20085;-79
2022/07/26 17:48:42;;;;;;;10.98;2.42;;;;;;;22.73;58.08;98975.59;8405568;27;20138;-79
2022/07/26 17:52:43;;;;;;;10.90;2.80;;;;;;;22.64;58.81;98977.91;8457572;27;20035;-79
2022/07/26 17:56:44;;;;;;;6.55;2.28;;;;;;;22.53;59.20;98971.59;8457986;28;20683;-79
2022/07/26 18:00:46;;;;;;;4.15;2.40;;;;;;;22.44;60.12;98982.19;8460242;27;20494;-79
2022/07/26 18:04:46;;;;;;;7.55;2.88;;;;;;;22.33;60.59;98980.22;8452942;28;20060;-79
2022/07/26 18:08:48;;;;;;;5.72;2.88;;;;;;;22.21;61.26;98977.81;8456426;27;20043;-79
2022/07/26 18:12:49;;;;;;;6.70;2.97;;;;;;;22.08;61.83;98979.38;8462651;27;20443;-78
2022/07/26 18:16:50;;;;;;;6.32;2.63;;;;;;;21.93;62.43;98983.22;8459003;27;20048;-79
2022/07/26 18:20:51;;;;;;;5.00;2.70;;;;;;;21.84;62.99;98980.03;8448155;27;20131;-80
2022/07/26 18:24:52;;;;;;;9.63;2.80;;;;;;;21.72;63.50;98983.91;8423465;27;20077;-79
2022/07/26 18:28:53;;;;;;;5.22;2.85;;;;;;;21.64;63.87;98993.28;8444076;28;20039;-79
2022/07/26 18:32:55;;;;;;;9.45;3.65;;;;;;;21.58;64.00;98988.53;8452807;28;20551;-79
2022/07/26 18:36:56;;;;;;;8.35;4.00;;;;;;;21.51;64.12;98994.00;8420817;28;20059;-78
2022/07/26 18:40:57;;;;;;;12.32;4.68;;;;;;;21.41;64.16;98990.78;8457101;28;20438;-79
2022/07/26 18:44:58;;;;;;;14.65;6.03;;;;;;;21.32;64.63;98990.34;8454436;28;20062;-79
2022/07/26 18:48:59;;;;;;;10.50;7.15;;;;;;;21.19;64.19;98997.34;8457220;27;20106;-79
2022/07/26 18:53:00;;;;;;;14.25;6.45;;;;;;;21.18;63.89;99004.00;8450455;27;20102;-81
2022/07/26 18:57:02;;;;;;;10.75;4.13;;;;;;;21.08;64.67;99043.13;8453458;28;20048;-80
2022/07/26 19:01:03;;;;;;;13.95;2.75;;;;;;;20.93;61.77;99046.91;8434044;27;20068;-81